Lovejoy, Illinois
Current Conditions -  °F | °C
As of 5:53 PM on Sunday 23 Nov 2014 (Local Time) from KCPS Reporting Station
Light Rain Light Rain  
Wind Chill: 12°   Ceiling: 500
Heat Index: 12°   Visibility: 2.5mi
Dew Point: 12°   Wind: 5mph
Humidity: 97%   Direction: 150°SSE
Pressure: 29.3"   Gusts: NA
Location:  38.63°N, 90.15°W
Report Text: KCPS 232353Z 15004KT 2 1/2SM -RA BR BKN005 OVC018 12/12 A2930 RMK AO2 SLP920 P0003 60080 T01220117 10128 20122 56027
Loading
Personal Weather Stations






























Interactive Weather Map New forecast layout! Learn more

10-Day Weather Forecast

Advertisements
Track Severe Weather on mobile